KCFE

Buffalo Municipal Airport

Buffalo, Minnesota, USA
METAR KCFE 201655Z AUTO 33012G20KT 10SM SCT050 03/M10 A3026 RMK AO2 T00251100
Observed Flight Rules
Oct-20 @ 16:55 UTC (34 minutes ago) Visual Flight Rules
Wind Visibility Clouds
330° at 12 knots
 Gusting to 20 knots
10 miles
  • Scattered at 5,000' AGL
Temperatures Readings
Current 3°C / 37°F
Dewpoint -10°C / 14°F
Humidity 38%
Altimeter 30.26" Hg
Pressure 1025 hPa
Elevation 295
METAR KCFE 201655Z AUTO 33012G20KT 10SM SCT050 03/M10 A3026 RMK AO2 T00251100
Observed Flight Rules
Oct-20 @ 16:55 UTC
(34 minutes ago)
VFR
Wind Visibility
330° at 12 knots
 Gusting to 20 knots
10 miles
Clouds
  • Scattered at 5,000' AGL
Temperature Dewpoint
3°C / 37°F -10°C / 14°F
Humidity Altimeter Pressure
38% 30.26" Hg 1025 hPa